sensor_id;sensor_type;location;lat;lon;timestamp;pressure;altitude;pressure_sealevel;temperature;humidity
31121;BME280;17770;45.966;13.632;2023-04-27T00:00:29;100603.47;;;19.12;55.90
31121;BME280;17770;45.966;13.632;2023-04-27T00:02:55;100603.47;;;19.12;55.85
31121;BME280;17770;45.966;13.632;2023-04-27T00:05:21;100606.16;;;19.10;55.78
31121;BME280;17770;45.966;13.632;2023-04-27T00:07:47;100614.81;;;19.11;56.00
31121;BME280;17770;45.966;13.632;2023-04-27T00:10:13;100607.09;;;19.09;55.84
31121;BME280;17770;45.966;13.632;2023-04-27T00:12:39;100599.25;;;19.09;56.02
31121;BME280;17770;45.966;13.632;2023-04-27T00:15:07;100594.00;;;19.09;55.98
31121;BME280;17770;45.966;13.632;2023-04-27T00:17:33;100599.25;;;19.09;55.94
31121;BME280;17770;45.966;13.632;2023-04-27T00:19:59;100596.72;;;19.08;55.98
31121;BME280;17770;45.966;13.632;2023-04-27T00:22:25;100601.09;;;19.07;55.84
31121;BME280;17770;45.966;13.632;2023-04-27T00:24:51;100593.25;;;19.07;55.83
31121;BME280;17770;45.966;13.632;2023-04-27T00:27:17;100595.88;;;19.07;56.01
31121;BME280;17770;45.966;13.632;2023-04-27T00:29:43;100592.44;;;19.07;55.80
31121;BME280;17770;45.966;13.632;2023-04-27T00:32:09;100593.34;;;19.06;55.91
31121;BME280;17770;45.966;13.632;2023-04-27T00:34:35;100597.66;;;19.07;55.79
31121;BME280;17770;45.966;13.632;2023-04-27T00:37:01;100600.38;;;19.05;55.86
31121;BME280;17770;45.966;13.632;2023-04-27T00:39:27;100597.75;;;19.05;56.02
31121;BME280;17770;45.966;13.632;2023-04-27T00:41:53;100601.28;;;19.04;56.04
31121;BME280;17770;45.966;13.632;2023-04-27T00:44:26;100604.75;;;19.05;56.09
31121;BME280;17770;45.966;13.632;2023-04-27T00:46:52;100602.34;;;19.02;56.02
31121;BME280;17770;45.966;13.632;2023-04-27T00:49:18;100601.38;;;19.03;55.81
31121;BME280;17770;45.966;13.632;2023-04-27T00:51:49;100602.34;;;19.02;56.04
31121;BME280;17770;45.966;13.632;2023-04-27T00:54:14;100608.38;;;19.02;56.01
31121;BME280;17770;45.966;13.632;2023-04-27T00:56:43;100606.72;;;19.01;55.81
31121;BME280;17770;45.966;13.632;2023-04-27T00:59:09;100612.78;;;19.02;56.21
31121;BME280;17770;45.966;13.632;2023-04-27T01:01:35;100613.69;;;19.01;55.91
31121;BME280;17770;45.966;13.632;2023-04-27T01:04:01;100621.53;;;19.01;55.91
31121;BME280;17770;45.966;13.632;2023-04-27T01:06:28;100619.03;;;18.99;55.75
31121;BME280;17770;45.966;13.632;2023-04-27T01:08:54;100616.41;;;18.99;55.91
31121;BME280;17770;45.966;13.632;2023-04-27T01:11:20;100621.63;;;18.99;56.05
31121;BME280;17770;45.966;13.632;2023-04-27T01:13:46;100627.81;;;18.98;56.00
31121;BME280;17770;45.966;13.632;2023-04-27T01:16:12;100621.72;;;18.98;56.03
31121;BME280;17770;45.966;13.632;2023-04-27T01:18:38;100626.09;;;18.97;56.07
31121;BME280;17770;45.966;13.632;2023-04-27T01:21:05;100620.88;;;18.97;55.92
31121;BME280;17770;45.966;13.632;2023-04-27T01:23:31;100617.44;;;18.97;56.06
31121;BME280;17770;45.966;13.632;2023-04-27T01:25:57;100623.59;;;18.96;56.07
31121;BME280;17770;45.966;13.632;2023-04-27T01:28:23;100625.38;;;18.95;55.95
31121;BME280;17770;45.966;13.632;2023-04-27T01:30:49;100624.53;;;18.95;56.09
31121;BME280;17770;45.966;13.632;2023-04-27T01:33:15;100619.31;;;18.95;55.95
31121;BME280;17770;45.966;13.632;2023-04-27T01:35:41;100625.47;;;18.94;56.04
31121;BME280;17770;45.966;13.632;2023-04-27T01:38:07;100622.88;;;18.94;55.97
31121;BME280;17770;45.966;13.632;2023-04-27T01:40:33;100624.63;;;18.93;56.11
31121;BME280;17770;45.966;13.632;2023-04-27T01:42:58;100628.91;;;18.94;56.04
31121;BME280;17770;45.966;13.632;2023-04-27T01:45:24;100632.56;;;18.92;55.95
31121;BME280;17770;45.966;13.632;2023-04-27T01:47:51;100627.25;;;18.93;56.00
31121;BME280;17770;45.966;13.632;2023-04-27T01:50:19;100632.56;;;18.92;56.00
31121;BME280;17770;45.966;13.632;2023-04-27T01:52:45;100636.03;;;18.92;55.89
31121;BME280;17770;45.966;13.632;2023-04-27T01:55:11;100647.31;;;18.93;55.97
31121;BME280;17770;45.966;13.632;2023-04-27T01:57:37;100649.09;;;18.92;56.02
31121;BME280;17770;45.966;13.632;2023-04-27T02:00:02;100649.09;;;18.92;55.95
31121;BME280;17770;45.966;13.632;2023-04-27T02:02:46;100650.00;;;18.91;55.85
31121;BME280;17770;45.966;13.632;2023-04-27T02:05:12;100643.94;;;18.91;55.83
31121;BME280;17770;45.966;13.632;2023-04-27T02:07:37;100647.41;;;18.91;55.92
31121;BME280;17770;45.966;13.632;2023-04-27T02:10:03;100647.41;;;18.91;56.16
31121;BME280;17770;45.966;13.632;2023-04-27T02:12:30;100649.25;;;18.89;56.05
31121;BME280;17770;45.966;13.632;2023-04-27T02:14:55;100655.34;;;18.90;56.09
31121;BME280;17770;45.966;13.632;2023-04-27T02:17:22;100650.09;;;18.90;56.04
31121;BME280;17770;45.966;13.632;2023-04-27T02:19:48;100640.69;;;18.87;55.96
31121;BME280;17770;45.966;13.632;2023-04-27T02:22:14;100645.81;;;18.89;55.94
31121;BME280;17770;45.966;13.632;2023-04-27T02:24:40;100649.34;;;18.88;56.05
31121;BME280;17770;45.966;13.632;2023-04-27T02:27:06;100656.28;;;18.89;55.82
31121;BME280;17770;45.966;13.632;2023-04-27T02:29:32;100646.72;;;18.88;56.21
31121;BME280;17770;45.966;13.632;2023-04-27T02:31:58;100644.13;;;18.88;56.19
31121;BME280;17770;45.966;13.632;2023-04-27T02:34:24;100630.28;;;18.86;56.03
31121;BME280;17770;45.966;13.632;2023-04-27T02:36:50;100638.88;;;18.88;55.90
31121;BME280;17770;45.966;13.632;2023-04-27T02:39:16;100647.59;;;18.88;56.09
31121;BME280;17770;45.966;13.632;2023-04-27T02:41:42;100645.06;;;18.87;56.13
31121;BME280;17770;45.966;13.632;2023-04-27T02:44:08;100652.06;;;18.86;55.94
31121;BME280;17770;45.966;13.632;2023-04-27T02:46:34;100648.59;;;18.86;55.92
31121;BME280;17770;45.966;13.632;2023-04-27T02:48:59;100655.59;;;18.85;56.19
31121;BME280;17770;45.966;13.632;2023-04-27T02:51:25;100656.63;;;18.83;56.02
31121;BME280;17770;45.966;13.632;2023-04-27T02:53:52;100656.53;;;18.84;55.98
31121;BME280;17770;45.966;13.632;2023-04-27T02:56:18;100655.69;;;18.84;55.99
31121;BME280;17770;45.966;13.632;2023-04-27T02:58:45;100653.91;;;18.84;56.14
31121;BME280;17770;45.966;13.632;2023-04-27T03:01:13;100667.06;;;18.83;56.03
31121;BME280;17770;45.966;13.632;2023-04-27T03:03:39;100659.22;;;18.83;56.30
31121;BME280;17770;45.966;13.632;2023-04-27T03:06:05;100660.16;;;18.82;56.04
31121;BME280;17770;45.966;13.632;2023-04-27T03:08:31;100654.09;;;18.81;56.09
31121;BME280;17770;45.966;13.632;2023-04-27T03:10:57;100661.06;;;18.81;56.02
31121;BME280;17770;45.966;13.632;2023-04-27T03:13:23;100663.69;;;18.81;56.01
31121;BME280;17770;45.966;13.632;2023-04-27T03:15:49;100663.78;;;18.79;56.27
31121;BME280;17770;45.966;13.632;2023-04-27T03:18:15;100659.31;;;18.81;55.98
31121;BME280;17770;45.966;13.632;2023-04-27T03:20:41;100661.94;;;18.81;55.91
31121;BME280;17770;45.966;13.632;2023-04-27T03:23:06;100652.44;;;18.80;56.16
31121;BME280;17770;45.966;13.632;2023-04-27T03:25:32;100664.63;;;18.80;55.80
31121;BME280;17770;45.966;13.632;2023-04-27T03:27:58;100654.19;;;18.80;56.33
31121;BME280;17770;45.966;13.632;2023-04-27T03:30:24;100655.94;;;18.79;56.20
31121;BME280;17770;45.966;13.632;2023-04-27T03:32:50;100662.03;;;18.80;56.09
31121;BME280;17770;45.966;13.632;2023-04-27T03:35:16;100662.13;;;18.78;56.16
31121;BME280;17770;45.966;13.632;2023-04-27T03:37:44;100669.97;;;18.78;55.97
31121;BME280;17770;45.966;13.632;2023-04-27T03:40:11;100674.34;;;18.78;56.17
31121;BME280;17770;45.966;13.632;2023-04-27T03:42:37;100676.94;;;18.78;56.16
31121;BME280;17770;45.966;13.632;2023-04-27T03:45:03;100677.88;;;18.77;56.09
31121;BME280;17770;45.966;13.632;2023-04-27T03:47:30;100683.97;;;18.77;56.27
31121;BME280;17770;45.966;13.632;2023-04-27T03:49:56;100680.50;;;18.77;56.21
31121;BME280;17770;45.966;13.632;2023-04-27T03:52:22;100686.66;;;18.76;56.18
31121;BME280;17770;45.966;13.632;2023-04-27T03:54:48;100690.94;;;18.77;56.09
31121;BME280;17770;45.966;13.632;2023-04-27T03:57:13;100694.41;;;18.77;56.18
31121;BME280;17770;45.966;13.632;2023-04-27T03:59:39;100697.94;;;18.76;56.04
31121;BME280;17770;45.966;13.632;2023-04-27T04:02:05;100698.88;;;18.75;56.18
31121;BME280;17770;45.966;13.632;2023-04-27T04:04:31;100705.88;;;18.75;56.12
31121;BME280;17770;45.966;13.632;2023-04-27T04:06:57;100698.97;;;18.74;56.17
31121;BME280;17770;45.966;13.632;2023-04-27T04:09:24;100704.19;;;18.74;56.27
31121;BME280;17770;45.966;13.632;2023-04-27T04:11:53;100703.34;;;18.73;56.07
31121;BME280;17770;45.966;13.632;2023-04-27T04:14:18;100700.75;;;18.73;56.05
31121;BME280;17770;45.966;13.632;2023-04-27T04:16:44;100696.38;;;18.74;56.06
31121;BME280;17770;45.966;13.632;2023-04-27T04:19:12;100700.75;;;18.73;56.32
31121;BME280;17770;45.966;13.632;2023-04-27T04:21:37;100699.06;;;18.72;56.05
31121;BME280;17770;45.966;13.632;2023-04-27T04:24:03;100697.38;;;18.71;56.00
31121;BME280;17770;45.966;13.632;2023-04-27T04:26:30;100701.69;;;18.72;56.14
31121;BME280;17770;45.966;13.632;2023-04-27T04:28:57;100696.44;;;18.72;56.15
31121;BME280;17770;45.966;13.632;2023-04-27T04:31:23;100701.78;;;18.71;56.35
31121;BME280;17770;45.966;13.632;2023-04-27T04:33:48;100703.53;;;18.70;56.33
31121;BME280;17770;45.966;13.632;2023-04-27T04:36:15;100693.06;;;18.70;56.09
31121;BME280;17770;45.966;13.632;2023-04-27T04:38:40;100700.06;;;18.70;56.22
31121;BME280;17770;45.966;13.632;2023-04-27T04:41:06;100706.16;;;18.70;56.19
31121;BME280;17770;45.966;13.632;2023-04-27T04:43:32;100707.91;;;18.70;56.30
31121;BME280;17770;45.966;13.632;2023-04-27T04:46:02;100720.13;;;18.69;56.40
31121;BME280;17770;45.966;13.632;2023-04-27T04:48:27;100727.94;;;18.69;56.24
31121;BME280;17770;45.966;13.632;2023-04-27T04:50:54;100735.78;;;18.69;56.20
31121;BME280;17770;45.966;13.632;2023-04-27T04:53:20;100730.56;;;18.69;56.08
31121;BME280;17770;45.966;13.632;2023-04-27T04:55:45;100734.13;;;18.68;56.24
31121;BME280;17770;45.966;13.632;2023-04-27T04:58:12;100737.69;;;18.67;56.20
31121;BME280;17770;45.966;13.632;2023-04-27T05:00:37;100741.97;;;18.68;56.21
31121;BME280;17770;45.966;13.632;2023-04-27T05:03:03;100734.97;;;18.69;56.31
31121;BME280;17770;45.966;13.632;2023-04-27T05:05:31;100728.03;;;18.68;56.23
31121;BME280;17770;45.966;13.632;2023-04-27T05:07:57;100735.78;;;18.69;56.19
31121;BME280;17770;45.966;13.632;2023-04-27T05:10:23;100724.63;;;18.67;56.30
31121;BME280;17770;45.966;13.632;2023-04-27T05:12:49;100730.66;;;18.68;56.34
31121;BME280;17770;45.966;13.632;2023-04-27T05:15:15;100736.72;;;18.68;56.18
31121;BME280;17770;45.966;13.632;2023-04-27T05:17:41;100744.56;;;18.68;56.29
31121;BME280;17770;45.966;13.632;2023-04-27T05:20:07;100744.66;;;18.67;56.34
31121;BME280;17770;45.966;13.632;2023-04-27T05:22:34;100741.19;;;18.66;56.35
31121;BME280;17770;45.966;13.632;2023-04-27T05:25:00;100738.59;;;18.66;56.27
31121;BME280;17770;45.966;13.632;2023-04-27T05:27:25;100735.16;;;18.66;56.22
31121;BME280;17770;45.966;13.632;2023-04-27T05:29:51;100734.31;;;18.65;56.25
31121;BME280;17770;45.966;13.632;2023-04-27T05:32:17;100739.53;;;18.65;56.12
31121;BME280;17770;45.966;13.632;2023-04-27T05:34:43;100733.44;;;18.65;56.13
31121;BME280;17770;45.966;13.632;2023-04-27T05:37:09;100730.75;;;18.66;56.35
31121;BME280;17770;45.966;13.632;2023-04-27T05:39:37;100729.94;;;18.66;56.22
31121;BME280;17770;45.966;13.632;2023-04-27T05:42:03;100742.13;;;18.65;56.41
31121;BME280;17770;45.966;13.632;2023-04-27T05:44:29;100740.47;;;18.64;56.39
31121;BME280;17770;45.966;13.632;2023-04-27T05:46:55;100752.69;;;18.64;56.44
31121;BME280;17770;45.966;13.632;2023-04-27T05:49:21;100757.06;;;18.63;56.34
31121;BME280;17770;45.966;13.632;2023-04-27T05:51:47;100764.88;;;18.63;56.19
31121;BME280;17770;45.966;13.632;2023-04-27T05:54:13;100768.44;;;18.62;56.27
31121;BME280;17770;45.966;13.632;2023-04-27T05:56:39;100764.88;;;18.63;56.29
31121;BME280;17770;45.966;13.632;2023-04-27T05:59:05;100772.72;;;18.63;56.20
31121;BME280;17770;45.966;13.632;2023-04-27T06:01:31;100771.97;;;18.61;56.35
31121;BME280;17770;45.966;13.632;2023-04-27T06:03:57;100768.53;;;18.61;56.39
31121;BME280;17770;45.966;13.632;2023-04-27T06:06:26;100768.53;;;18.61;56.34
31121;BME280;17770;45.966;13.632;2023-04-27T06:08:52;100763.31;;;18.61;56.48
31121;BME280;17770;45.966;13.632;2023-04-27T06:11:18;100757.22;;;18.60;56.19
31121;BME280;17770;45.966;13.632;2023-04-27T06:13:44;100760.78;;;18.59;56.45
31121;BME280;17770;45.966;13.632;2023-04-27T06:16:10;100752.84;;;18.61;56.20
31121;BME280;17770;45.966;13.632;2023-04-27T06:18:36;100763.41;;;18.59;56.40
31121;BME280;17770;45.966;13.632;2023-04-27T06:21:02;100752.94;;;18.59;56.36
31121;BME280;17770;45.966;13.632;2023-04-27T06:23:28;100766.75;;;18.61;56.27
31121;BME280;17770;45.966;13.632;2023-04-27T06:25:54;100758.16;;;18.59;56.18
31121;BME280;17770;45.966;13.632;2023-04-27T06:28:20;100762.53;;;18.59;56.58
31121;BME280;17770;45.966;13.632;2023-04-27T06:30:46;100766.00;;;18.59;56.30
31121;BME280;17770;45.966;13.632;2023-04-27T06:33:12;100768.63;;;18.59;56.38
31121;BME280;17770;45.966;13.632;2023-04-27T06:35:38;100765.16;;;18.59;56.13
31121;BME280;17770;45.966;13.632;2023-04-27T06:38:03;100760.78;;;18.59;56.30
31121;BME280;17770;45.966;13.632;2023-04-27T06:40:29;100754.72;;;18.59;56.51
31121;BME280;17770;45.966;13.632;2023-04-27T06:42:56;100750.34;;;18.59;56.52
31121;BME280;17770;45.966;13.632;2023-04-27T06:45:21;100762.53;;;18.59;56.25
31121;BME280;17770;45.966;13.632;2023-04-27T06:47:47;100765.25;;;18.57;56.46
31121;BME280;17770;45.966;13.632;2023-04-27T06:50:13;100767.84;;;18.57;56.46
31121;BME280;17770;45.966;13.632;2023-04-27T06:52:40;100770.47;;;18.57;56.53
31121;BME280;17770;45.966;13.632;2023-04-27T06:55:06;100773.09;;;18.57;56.37
31121;BME280;17770;45.966;13.632;2023-04-27T06:57:32;100779.06;;;18.59;56.42
31121;BME280;17770;45.966;13.632;2023-04-27T06:59:58;100784.34;;;18.58;56.54
31121;BME280;17770;45.966;13.632;2023-04-27T07:02:24;100784.34;;;18.58;56.43
31121;BME280;17770;45.966;13.632;2023-04-27T07:04:50;100793.03;;;18.58;56.40
31121;BME280;17770;45.966;13.632;2023-04-27T07:07:16;100787.91;;;18.57;56.71
31121;BME280;17770;45.966;13.632;2023-04-27T07:09:42;100786.16;;;18.57;56.45
31121;BME280;17770;45.966;13.632;2023-04-27T07:12:08;100791.38;;;18.57;56.37
31121;BME280;17770;45.966;13.632;2023-04-27T07:14:34;100780.91;;;18.57;56.43
31121;BME280;17770;45.966;13.632;2023-04-27T07:17:00;100780.06;;;18.57;56.46
31121;BME280;17770;45.966;13.632;2023-04-27T07:19:26;100783.63;;;18.56;56.59
31121;BME280;17770;45.966;13.632;2023-04-27T07:21:52;100786.97;;;18.58;56.52
31121;BME280;17770;45.966;13.632;2023-04-27T07:24:18;100780.91;;;18.57;56.74
31121;BME280;17770;45.966;13.632;2023-04-27T07:26:45;100784.28;;;18.59;56.65
31121;BME280;17770;45.966;13.632;2023-04-27T07:29:10;100786.06;;;18.59;56.52
31121;BME280;17770;45.966;13.632;2023-04-27T07:31:37;100787.81;;;18.58;56.43
31121;BME280;17770;45.966;13.632;2023-04-27T07:34:03;100779.06;;;18.59;56.46
31121;BME280;17770;45.966;13.632;2023-04-27T07:36:29;100779.06;;;18.59;56.46
31121;BME280;17770;45.966;13.632;2023-04-27T07:38:56;100787.72;;;18.60;56.23
31121;BME280;17770;45.966;13.632;2023-04-27T07:41:23;100792.13;;;18.59;56.20
31121;BME280;17770;45.966;13.632;2023-04-27T07:43:49;100785.13;;;18.60;56.12
31121;BME280;17770;45.966;13.632;2023-04-27T07:46:16;100790.34;;;18.60;56.08
31121;BME280;17770;45.966;13.632;2023-04-27T07:48:43;100792.13;;;18.59;56.24
31121;BME280;17770;45.966;13.632;2023-04-27T07:51:09;100789.53;;;18.59;55.93
31121;BME280;17770;45.966;13.632;2023-04-27T07:53:35;100793.03;;;18.58;56.09
31121;BME280;17770;45.966;13.632;2023-04-27T07:56:01;100794.75;;;18.59;55.99
31121;BME280;17770;45.966;13.632;2023-04-27T07:58:27;100790.34;;;18.60;55.95
31121;BME280;17770;45.966;13.632;2023-04-27T08:00:53;100796.41;;;18.60;56.27
31121;BME280;17770;45.966;13.632;2023-04-27T08:03:19;100797.28;;;18.61;55.93
31121;BME280;17770;45.966;13.632;2023-04-27T08:05:47;100793.72;;;18.62;55.92
31121;BME280;17770;45.966;13.632;2023-04-27T08:08:12;100800.69;;;18.61;56.07
31121;BME280;17770;45.966;13.632;2023-04-27T08:10:38;100800.69;;;18.61;56.03
31121;BME280;17770;45.966;13.632;2023-04-27T08:13:04;100798.00;;;18.63;55.97
31121;BME280;17770;45.966;13.632;2023-04-27T08:15:34;100783.25;;;18.62;55.78
31121;BME280;17770;45.966;13.632;2023-04-27T08:18:00;100785.88;;;18.62;55.94
31121;BME280;17770;45.966;13.632;2023-04-27T08:20:26;100791.97;;;18.62;56.10
31121;BME280;17770;45.966;13.632;2023-04-27T08:22:52;100794.56;;;18.62;56.13
31121;BME280;17770;45.966;13.632;2023-04-27T08:25:18;100789.34;;;18.62;55.85
31121;BME280;17770;45.966;13.632;2023-04-27T08:27:44;100791.00;;;18.63;55.91
31121;BME280;17770;45.966;13.632;2023-04-27T08:30:10;100792.78;;;18.63;55.88
31121;BME280;17770;45.966;13.632;2023-04-27T08:32:36;100789.25;;;18.64;56.08
31121;BME280;17770;45.966;13.632;2023-04-27T08:35:02;100796.16;;;18.65;55.84
31121;BME280;17770;45.966;13.632;2023-04-27T08:37:29;100789.16;;;18.65;56.07
31121;BME280;17770;45.966;13.632;2023-04-27T08:39:54;100795.25;;;18.66;55.87
31121;BME280;17770;45.966;13.632;2023-04-27T08:42:20;100794.41;;;18.65;56.02
31121;BME280;17770;45.966;13.632;2023-04-27T08:44:46;100793.44;;;18.66;55.98
31121;BME280;17770;45.966;13.632;2023-04-27T08:47:12;100790.03;;;18.66;55.93
31121;BME280;17770;45.966;13.632;2023-04-27T08:49:38;100795.25;;;18.66;55.83
31121;BME280;17770;45.966;13.632;2023-04-27T08:52:15;100788.22;;;18.66;56.05
31121;BME280;17770;45.966;13.632;2023-04-27T08:54:41;100790.84;;;18.66;56.01
31121;BME280;17770;45.966;13.632;2023-04-27T08:57:08;100792.53;;;18.67;56.05
31121;BME280;17770;45.966;13.632;2023-04-27T08:59:34;100794.31;;;18.67;56.09
31121;BME280;17770;45.966;13.632;2023-04-27T09:02:00;100797.69;;;18.69;55.95
31121;BME280;17770;45.966;13.632;2023-04-27T09:04:35;100795.16;;;18.67;55.88
31121;BME280;17770;45.966;13.632;2023-04-27T09:07:11;100796.75;;;18.70;56.08
31121;BME280;17770;45.966;13.632;2023-04-27T09:09:37;100806.34;;;18.69;55.69
31121;BME280;17770;45.966;13.632;2023-04-27T09:12:12;100807.19;;;18.70;55.95
31121;BME280;17770;45.966;13.632;2023-04-27T09:14:38;100806.28;;;18.71;55.98
31121;BME280;17770;45.966;13.632;2023-04-27T09:17:04;100813.28;;;18.70;56.15
31121;BME280;17770;45.966;13.632;2023-04-27T09:19:30;100815.78;;;18.72;55.84
31121;BME280;17770;45.966;13.632;2023-04-27T09:22:29;100811.50;;;18.71;55.93
31121;BME280;17770;45.966;13.632;2023-04-27T09:24:51;100814.94;;;18.71;56.07
31121;BME280;17770;45.966;13.632;2023-04-27T09:27:20;100808.81;;;18.72;56.04
31121;BME280;17770;45.966;13.632;2023-04-27T09:29:46;100814.03;;;18.72;55.96
31121;BME280;17770;45.966;13.632;2023-04-27T09:32:18;100813.00;;;18.75;56.13
31121;BME280;17770;45.966;13.632;2023-04-27T09:34:45;100806.88;;;18.76;56.11
31121;BME280;17770;45.966;13.632;2023-04-27T09:37:11;100810.31;;;18.76;55.97
31121;BME280;17770;45.966;13.632;2023-04-27T09:39:38;100809.50;;;18.76;55.94
31121;BME280;17770;45.966;13.632;2023-04-27T09:42:06;100803.31;;;18.77;56.11
31121;BME280;17770;45.966;13.632;2023-04-27T09:44:33;100804.16;;;18.77;55.96
31121;BME280;17770;45.966;13.632;2023-04-27T09:46:59;100805.09;;;18.76;56.08
31121;BME280;17770;45.966;13.632;2023-04-27T09:49:26;100808.38;;;18.80;56.09
31121;BME280;17770;45.966;13.632;2023-04-27T09:51:54;100804.91;;;18.79;56.15
31121;BME280;17770;45.966;13.632;2023-04-27T09:54:21;100806.59;;;18.80;56.00
31121;BME280;17770;45.966;13.632;2023-04-27T10:01:59;100804.75;;;18.82;55.86
31121;BME280;17770;45.966;13.632;2023-04-27T10:09:21;100807.09;;;18.87;56.18
31121;BME280;17770;45.966;13.632;2023-04-27T10:11:51;100808.88;;;18.86;56.46
31121;BME280;17770;45.966;13.632;2023-04-27T10:14:18;100800.13;;;18.87;56.62
31121;BME280;17770;45.966;13.632;2023-04-27T10:16:52;100800.03;;;18.89;56.20
31121;BME280;17770;45.966;13.632;2023-04-27T10:19:18;100802.56;;;18.90;56.24
31121;BME280;17770;45.966;13.632;2023-04-27T10:21:58;100804.22;;;18.91;56.91
31121;BME280;17770;45.966;13.632;2023-04-27T10:24:33;100791.91;;;18.93;56.80
31121;BME280;17770;45.966;13.632;2023-04-27T10:27:01;100791.81;;;18.95;56.51
31121;BME280;17770;45.966;13.632;2023-04-27T10:29:33;100793.50;;;18.96;56.70
31121;BME280;17770;45.966;13.632;2023-04-27T10:32:04;100793.41;;;18.97;56.73
31121;BME280;17770;45.966;13.632;2023-04-27T10:34:32;100791.47;;;19.01;56.34
31121;BME280;17770;45.966;13.632;2023-04-27T10:37:05;100781.84;;;19.01;56.58
31121;BME280;17770;45.966;13.632;2023-04-27T10:39:36;100780.84;;;19.04;56.99
31121;BME280;17770;45.966;13.632;2023-04-27T10:42:02;100776.44;;;19.04;57.06
31121;BME280;17770;45.966;13.632;2023-04-27T10:44:29;100778.97;;;19.06;56.80
31121;BME280;17770;45.966;13.632;2023-04-27T10:46:56;100777.97;;;19.08;56.77
31121;BME280;17770;45.966;13.632;2023-04-27T10:49:22;100774.41;;;19.09;56.57
31121;BME280;17770;45.966;13.632;2023-04-27T10:51:48;100774.31;;;19.11;56.79
31121;BME280;17770;45.966;13.632;2023-04-27T10:54:15;100774.22;;;19.12;57.06
31121;BME280;17770;45.966;13.632;2023-04-27T10:56:41;100768.91;;;19.14;57.16
31121;BME280;17770;45.966;13.632;2023-04-27T10:59:07;100770.63;;;19.15;57.56
31121;BME280;17770;45.966;13.632;2023-04-27T11:01:34;100767.06;;;19.16;57.30
31121;BME280;17770;45.966;13.632;2023-04-27T11:04:00;100771.28;;;19.18;57.43
31121;BME280;17770;45.966;13.632;2023-04-27T11:06:27;100767.72;;;19.19;57.67
31121;BME280;17770;45.966;13.632;2023-04-27T11:08:53;100766.81;;;19.20;57.59
31121;BME280;17770;45.966;13.632;2023-04-27T11:11:19;100765.88;;;19.21;57.82
31121;BME280;17770;45.966;13.632;2023-04-27T11:13:47;100773.63;;;19.23;57.80
31121;BME280;17770;45.966;13.632;2023-04-27T11:16:13;100759.59;;;19.24;57.78
31121;BME280;17770;45.966;13.632;2023-04-27T11:18:39;100758.59;;;19.26;57.67
31121;BME280;17770;45.966;13.632;2023-04-27T11:21:06;100762.81;;;19.29;57.47
31121;BME280;17770;45.966;13.632;2023-04-27T11:23:33;100761.81;;;19.31;57.49
31121;BME280;17770;45.966;13.632;2023-04-27T11:28:35;100753.69;;;19.36;57.62
31121;BME280;17770;45.966;13.632;2023-04-27T11:31:01;100755.34;;;19.37;57.90
31121;BME280;17770;45.966;13.632;2023-04-27T11:33:28;100762.19;;;19.39;57.57
31121;BME280;17770;45.966;13.632;2023-04-27T11:35:54;100754.16;;;19.42;57.69
31121;BME280;17770;45.966;13.632;2023-04-27T11:38:21;100751.34;;;19.45;57.50
31121;BME280;17770;45.966;13.632;2023-04-27T11:41:03;100749.50;;;19.48;57.70
31121;BME280;17770;45.966;13.632;2023-04-27T11:43:29;100745.03;;;19.50;57.55
31121;BME280;17770;45.966;13.632;2023-04-27T11:45:55;100741.38;;;19.52;57.67
31121;BME280;17770;45.966;13.632;2023-04-27T11:48:23;100741.22;;;19.55;57.31
31121;BME280;17770;45.966;13.632;2023-04-27T11:50:49;100731.47;;;19.57;57.68
31121;BME280;17770;45.966;13.632;2023-04-27T11:53:15;100743.53;;;19.60;57.49
31121;BME280;17770;45.966;13.632;2023-04-27T11:55:41;100739.06;;;19.62;57.78
31121;BME280;17770;45.966;13.632;2023-04-27T11:58:14;100738.88;;;19.65;57.76
31121;BME280;17770;45.966;13.632;2023-04-27T12:00:40;100741.19;;;19.69;58.44
31121;BME280;17770;45.966;13.632;2023-04-27T12:03:06;100733.25;;;19.71;57.42
31121;BME280;17770;45.966;13.632;2023-04-27T12:05:33;100733.06;;;19.74;57.89
31121;BME280;17770;45.966;13.632;2023-04-27T12:07:59;100734.66;;;19.76;58.49
31121;BME280;17770;45.966;13.632;2023-04-27T12:10:26;100736.34;;;19.77;58.80
31121;BME280;17770;45.966;13.632;2023-04-27T12:12:52;100737.94;;;19.80;58.88
31121;BME280;17770;45.966;13.632;2023-04-27T12:15:18;100741.28;;;19.82;59.13
31121;BME280;17770;45.966;13.632;2023-04-27T12:17:44;100743.72;;;19.85;58.26
31121;BME280;17770;45.966;13.632;2023-04-27T12:20:10;100721.84;;;19.86;58.94
31121;BME280;17770;45.966;13.632;2023-04-27T12:22:36;100730.34;;;19.89;58.94
31121;BME280;17770;45.966;13.632;2023-04-27T12:25:02;100727.53;;;19.92;59.25
31121;BME280;17770;45.966;13.632;2023-04-27T12:27:29;100722.97;;;19.96;59.17
31121;BME280;17770;45.966;13.632;2023-04-27T12:29:55;100724.53;;;19.98;59.14
31121;BME280;17770;45.966;13.632;2023-04-27T12:32:23;100726.97;;;20.01;59.36
31121;BME280;17770;45.966;13.632;2023-04-27T12:34:49;100720.69;;;20.04;58.52
31121;BME280;17770;45.966;13.632;2023-04-27T12:37:15;100722.28;;;20.06;59.08
31121;BME280;17770;45.966;13.632;2023-04-27T12:39:41;100717.78;;;20.08;59.49
31121;BME280;17770;45.966;13.632;2023-04-27T12:42:07;100723.78;;;20.10;57.99
31121;BME280;17770;45.966;13.632;2023-04-27T12:44:33;100726.19;;;20.13;59.46
31121;BME280;17770;45.966;13.632;2023-04-27T12:46:58;100729.59;;;20.15;58.34
31121;BME280;17770;45.966;13.632;2023-04-27T12:49:24;100720.78;;;20.16;58.27